sensor_id;sensor_type;location;lat;lon;timestamp;pressure;altitude;pressure_sealevel;temperature;humidity
75208;BME280;63795;55.684;37.864;2023-04-21T00:02:24;99883.66;;;9.78;29.75
75208;BME280;63795;55.684;37.864;2023-04-21T00:07:25;99889.28;;;9.71;29.53
75208;BME280;63795;55.684;37.864;2023-04-21T00:12:26;99887.28;;;9.68;30.01
75208;BME280;63795;55.684;37.864;2023-04-21T00:17:26;99885.63;;;9.60;30.05
75208;BME280;63795;55.684;37.864;2023-04-21T00:22:27;99877.50;;;9.55;30.02
75208;BME280;63795;55.684;37.864;2023-04-21T00:27:27;99876.28;;;9.45;30.13
75208;BME280;63795;55.684;37.864;2023-04-21T00:32:28;99875.88;;;9.39;29.85
75208;BME280;63795;55.684;37.864;2023-04-21T00:37:28;99861.25;;;9.27;29.98
75208;BME280;63795;55.684;37.864;2023-04-21T00:42:30;99860.84;;;9.28;29.88
75208;BME280;63795;55.684;37.864;2023-04-21T00:47:30;99862.84;;;9.24;30.01
75208;BME280;63795;55.684;37.864;2023-04-21T00:52:32;99864.44;;;9.11;30.71
75208;BME280;63795;55.684;37.864;2023-04-21T00:57:35;99851.06;;;9.01;30.32
75208;BME280;63795;55.684;37.864;2023-04-21T01:02:37;99846.50;;;8.86;30.98
75208;BME280;63795;55.684;37.864;2023-04-21T01:07:38;99847.75;;;8.85;31.13
75208;BME280;63795;55.684;37.864;2023-04-21T01:12:46;99849.31;;;8.79;31.38
75208;BME280;63795;55.684;37.864;2023-04-21T01:17:47;99844.00;;;8.71;31.00
75208;BME280;63795;55.684;37.864;2023-04-21T01:22:48;99837.53;;;8.67;31.17
75208;BME280;63795;55.684;37.864;2023-04-21T01:27:50;99842.78;;;8.68;31.39
75208;BME280;63795;55.684;37.864;2023-04-21T01:32:51;99833.88;;;8.63;31.11
75208;BME280;63795;55.684;37.864;2023-04-21T01:37:52;99831.84;;;8.60;30.78
75208;BME280;63795;55.684;37.864;2023-04-21T01:42:52;99829.03;;;8.63;31.08
75208;BME280;63795;55.684;37.864;2023-04-21T01:47:53;99832.28;;;8.69;30.69
75208;BME280;63795;55.684;37.864;2023-04-21T01:52:53;99833.06;;;8.62;30.84
75208;BME280;63795;55.684;37.864;2023-04-21T01:57:54;99827.38;;;8.58;30.98
75208;BME280;63795;55.684;37.864;2023-04-21T02:02:56;99832.53;;;8.46;31.33
75208;BME280;63795;55.684;37.864;2023-04-21T02:07:57;99834.09;;;8.36;31.65
75208;BME280;63795;55.684;37.864;2023-04-21T02:12:58;99833.25;;;8.29;31.52
75208;BME280;63795;55.684;37.864;2023-04-21T02:17:58;99838.50;;;8.30;31.36
75208;BME280;63795;55.684;37.864;2023-04-21T02:22:59;99840.88;;;8.25;31.39
75208;BME280;63795;55.684;37.864;2023-04-21T02:27:59;99833.66;;;8.27;31.63
75208;BME280;63795;55.684;37.864;2023-04-21T02:33:00;99832.00;;;8.26;31.27
75208;BME280;63795;55.684;37.864;2023-04-21T02:38:00;99832.84;;;8.30;31.88
75208;BME280;63795;55.684;37.864;2023-04-21T02:43:06;99830.84;;;8.34;31.01
75208;BME280;63795;55.684;37.864;2023-04-21T02:48:07;99837.81;;;8.47;30.81
75208;BME280;63795;55.684;37.864;2023-04-21T02:53:07;99839.00;;;8.43;31.58
75208;BME280;63795;55.684;37.864;2023-04-21T02:58:07;99830.00;;;8.27;32.30
75208;BME280;63795;55.684;37.864;2023-04-21T03:03:08;99825.09;;;8.24;31.42
75208;BME280;63795;55.684;37.864;2023-04-21T03:08:09;99837.25;;;8.28;32.09
75208;BME280;63795;55.684;37.864;2023-04-21T03:13:09;99831.53;;;8.21;31.97
75208;BME280;63795;55.684;37.864;2023-04-21T03:18:10;99842.03;;;8.24;31.88
75208;BME280;63795;55.684;37.864;2023-04-21T03:23:10;99848.91;;;8.23;32.34
75208;BME280;63795;55.684;37.864;2023-04-21T03:28:11;99849.78;;;8.27;31.72
75208;BME280;63795;55.684;37.864;2023-04-21T03:33:11;99859.13;;;8.38;32.10
75208;BME280;63795;55.684;37.864;2023-04-21T03:38:12;99849.88;;;8.41;32.52
75208;BME280;63795;55.684;37.864;2023-04-21T03:43:12;99853.19;;;8.53;31.40
75208;BME280;63795;55.684;37.864;2023-04-21T03:48:13;99852.88;;;8.69;32.01
75208;BME280;63795;55.684;37.864;2023-04-21T03:53:13;99851.63;;;8.63;32.23
75208;BME280;63795;55.684;37.864;2023-04-21T03:58:15;99850.41;;;8.64;32.43
75208;BME280;63795;55.684;37.864;2023-04-21T04:03:15;99851.25;;;8.65;31.88
75208;BME280;63795;55.684;37.864;2023-04-21T04:08:16;99851.72;;;8.77;31.92
75208;BME280;63795;55.684;37.864;2023-04-21T04:13:16;99843.75;;;8.93;31.88
75208;BME280;63795;55.684;37.864;2023-04-21T04:18:17;99841.34;;;8.99;31.88
75208;BME280;63795;55.684;37.864;2023-04-21T04:23:18;99842.59;;;9.08;31.37
75208;BME280;63795;55.684;37.864;2023-04-21T04:28:18;99841.34;;;9.02;31.89
75208;BME280;63795;55.684;37.864;2023-04-21T04:33:18;99848.31;;;9.22;31.29
75208;BME280;63795;55.684;37.864;2023-04-21T04:38:19;99838.69;;;9.44;32.15
75208;BME280;63795;55.684;37.864;2023-04-21T04:43:20;99840.31;;;9.56;31.65
75208;BME280;63795;55.684;37.864;2023-04-21T04:48:20;99835.47;;;9.57;31.35
75208;BME280;63795;55.684;37.864;2023-04-21T04:53:21;99836.72;;;9.63;32.07
75208;BME280;63795;55.684;37.864;2023-04-21T04:58:22;99831.91;;;9.88;31.52
75208;BME280;63795;55.684;37.864;2023-04-21T05:03:22;99836.78;;;9.98;31.64
75208;BME280;63795;55.684;37.864;2023-04-21T05:08:22;99826.66;;;10.07;31.66
75208;BME280;63795;55.684;37.864;2023-04-21T05:13:23;99829.91;;;10.13;31.37
75208;BME280;63795;55.684;37.864;2023-04-21T05:18:23;99825.47;;;10.30;31.32
75208;BME280;63795;55.684;37.864;2023-04-21T05:23:24;99830.28;;;10.57;31.09
75208;BME280;63795;55.684;37.864;2023-04-21T05:28:25;99816.03;;;10.85;30.56
75208;BME280;63795;55.684;37.864;2023-04-21T05:33:29;99825.69;;;11.05;30.64
75208;BME280;63795;55.684;37.864;2023-04-21T05:38:30;99809.38;;;11.31;30.27
75208;BME280;63795;55.684;37.864;2023-04-21T05:43:31;99808.41;;;11.55;29.36
75208;BME280;63795;55.684;37.864;2023-04-21T05:48:34;99811.63;;;11.67;28.96
75208;BME280;63795;55.684;37.864;2023-04-21T05:53:36;99816.38;;;11.84;28.24
75208;BME280;63795;55.684;37.864;2023-04-21T05:58:37;99811.75;;;12.08;29.09
75208;BME280;63795;55.684;37.864;2023-04-21T06:03:37;99802.84;;;12.47;27.72
75208;BME280;63795;55.684;37.864;2023-04-21T06:08:38;99799.09;;;12.94;27.94
75208;BME280;63795;55.684;37.864;2023-04-21T06:13:38;99790.78;;;13.71;27.13
75208;BME280;63795;55.684;37.864;2023-04-21T06:18:39;99796.16;;;14.65;25.84
75208;BME280;63795;55.684;37.864;2023-04-21T06:23:40;99804.63;;;15.30;24.03
75208;BME280;63795;55.684;37.864;2023-04-21T06:28:41;99802.19;;;15.68;24.53
75208;BME280;63795;55.684;37.864;2023-04-21T06:33:41;99797.28;;;16.53;22.83
75208;BME280;63795;55.684;37.864;2023-04-21T06:38:42;99801.22;;;16.87;22.26
75208;BME280;63795;55.684;37.864;2023-04-21T06:43:42;99784.84;;;17.58;23.13
75208;BME280;63795;55.684;37.864;2023-04-21T06:48:43;99781.09;;;17.32;21.52
75208;BME280;63795;55.684;37.864;2023-04-21T06:53:43;99780.75;;;16.89;21.72
75208;BME280;63795;55.684;37.864;2023-04-21T06:58:44;99784.47;;;17.43;21.72
75208;BME280;63795;55.684;37.864;2023-04-21T07:03:45;99776.41;;;17.79;21.21
75208;BME280;63795;55.684;37.864;2023-04-21T07:08:46;99775.97;;;17.94;20.57
75208;BME280;63795;55.684;37.864;2023-04-21T07:13:47;99768.84;;;17.86;20.68
75208;BME280;63795;55.684;37.864;2023-04-21T07:18:47;99762.16;;;18.14;20.68
75208;BME280;63795;55.684;37.864;2023-04-21T07:23:47;99761.00;;;18.83;20.20
75208;BME280;63795;55.684;37.864;2023-04-21T07:28:48;99756.59;;;18.57;19.25
75208;BME280;63795;55.684;37.864;2023-04-21T07:33:50;99757.44;;;18.45;20.21
75208;BME280;63795;55.684;37.864;2023-04-21T07:38:50;99747.34;;;17.52;20.12
75208;BME280;63795;55.684;37.864;2023-04-21T07:43:50;99746.56;;;16.82;21.09
75208;BME280;63795;55.684;37.864;2023-04-21T07:48:51;99736.97;;;16.28;21.60
75208;BME280;63795;55.684;37.864;2023-04-21T07:53:52;99736.00;;;15.86;21.64
75208;BME280;63795;55.684;37.864;2023-04-21T07:58:52;99728.03;;;15.45;21.80
75208;BME280;63795;55.684;37.864;2023-04-21T08:03:53;99715.06;;;15.21;22.12
75208;BME280;63795;55.684;37.864;2023-04-21T08:08:53;99725.50;;;15.27;22.80
75208;BME280;63795;55.684;37.864;2023-04-21T08:13:55;99716.63;;;15.06;23.20
75208;BME280;63795;55.684;37.864;2023-04-21T08:18:56;99710.09;;;15.05;23.77
75208;BME280;63795;55.684;37.864;2023-04-21T08:23:57;99711.44;;;15.01;23.47
75208;BME280;63795;55.684;37.864;2023-04-21T08:28:57;99709.13;;;15.12;23.83
75208;BME280;63795;55.684;37.864;2023-04-21T08:33:59;99697.75;;;16.12;23.66
75208;BME280;63795;55.684;37.864;2023-04-21T08:39:01;99684.44;;;17.61;22.81
75208;BME280;63795;55.684;37.864;2023-04-21T08:44:01;99687.84;;;18.75;22.27
75208;BME280;63795;55.684;37.864;2023-04-21T08:49:02;99680.47;;;19.39;20.49
75208;BME280;63795;55.684;37.864;2023-04-21T08:54:02;99677.50;;;19.52;19.82
75208;BME280;63795;55.684;37.864;2023-04-21T08:59:03;99679.47;;;19.64;20.71
75208;BME280;63795;55.684;37.864;2023-04-21T09:04:17;99655.38;;;20.19;19.98
75208;BME280;63795;55.684;37.864;2023-04-21T09:09:17;99663.41;;;20.51;18.99
75208;BME280;63795;55.684;37.864;2023-04-21T09:14:19;99649.75;;;20.15;19.85
75208;BME280;63795;55.684;37.864;2023-04-21T09:19:19;99640.69;;;20.44;19.37
75208;BME280;63795;55.684;37.864;2023-04-21T09:24:20;99641.63;;;20.77;19.17
75208;BME280;63795;55.684;37.864;2023-04-21T09:29:24;99647.22;;;20.45;18.80
75208;BME280;63795;55.684;37.864;2023-04-21T09:34:25;99629.81;;;20.48;19.14
75208;BME280;63795;55.684;37.864;2023-04-21T09:39:28;99626.72;;;20.15;18.81
75208;BME280;63795;55.684;37.864;2023-04-21T09:44:29;99613.41;;;20.00;18.86
75208;BME280;63795;55.684;37.864;2023-04-21T09:49:34;99624.66;;;20.25;18.60
75208;BME280;63795;55.684;37.864;2023-04-21T09:54:40;99608.38;;;21.27;19.01
75208;BME280;63795;55.684;37.864;2023-04-21T09:59:44;99596.00;;;22.48;17.80
75208;BME280;63795;55.684;37.864;2023-04-21T10:04:46;99611.78;;;22.62;17.18
75208;BME280;63795;55.684;37.864;2023-04-21T10:09:51;99596.97;;;22.45;17.28
75208;BME280;63795;55.684;37.864;2023-04-21T10:14:54;99598.91;;;21.36;17.01
75208;BME280;63795;55.684;37.864;2023-04-21T10:19:56;99581.06;;;21.13;17.51
75208;BME280;63795;55.684;37.864;2023-04-21T10:24:59;99581.28;;;21.34;17.78
75208;BME280;63795;55.684;37.864;2023-04-21T10:30:01;99570.44;;;22.09;16.71
75208;BME280;63795;55.684;37.864;2023-04-21T10:35:23;99562.91;;;22.49;17.83
75208;BME280;63795;55.684;37.864;2023-04-21T10:45:30;99568.72;;;23.37;17.23
75208;BME280;63795;55.684;37.864;2023-04-21T10:50:31;99568.72;;;23.51;16.84
75208;BME280;63795;55.684;37.864;2023-04-21T10:55:32;99552.31;;;23.63;16.26
75208;BME280;63795;55.684;37.864;2023-04-21T11:00:32;99553.22;;;24.49;16.02
75208;BME280;63795;55.684;37.864;2023-04-21T11:05:37;99554.91;;;24.82;15.85
75208;BME280;63795;55.684;37.864;2023-04-21T11:10:45;99558.53;;;23.56;15.36
75208;BME280;63795;55.684;37.864;2023-04-21T11:16:02;99548.59;;;22.69;16.29
75208;BME280;63795;55.684;37.864;2023-04-21T11:21:07;99541.44;;;23.58;15.98
75208;BME280;63795;55.684;37.864;2023-04-21T11:26:08;99537.19;;;23.39;15.64
75208;BME280;63795;55.684;37.864;2023-04-21T11:31:09;99524.16;;;24.18;16.33
75208;BME280;63795;55.684;37.864;2023-04-21T11:36:10;99513.63;;;24.67;16.22
75208;BME280;63795;55.684;37.864;2023-04-21T11:41:10;99508.16;;;24.48;15.29
75208;BME280;63795;55.684;37.864;2023-04-21T11:46:22;99498.72;;;25.05;14.66
75208;BME280;63795;55.684;37.864;2023-04-21T11:51:23;99495.50;;;23.86;15.16
75208;BME280;63795;55.684;37.864;2023-04-21T11:56:23;99486.88;;;21.90;16.04
75208;BME280;63795;55.684;37.864;2023-04-21T12:01:25;99479.56;;;22.04;16.25
75208;BME280;63795;55.684;37.864;2023-04-21T12:06:26;99474.31;;;23.74;15.33
75208;BME280;63795;55.684;37.864;2023-04-21T12:11:30;99487.44;;;23.55;15.56
75208;BME280;63795;55.684;37.864;2023-04-21T12:16:31;99480.78;;;23.49;15.89
75208;BME280;63795;55.684;37.864;2023-04-21T12:21:31;99483.75;;;23.34;15.53
75208;BME280;63795;55.684;37.864;2023-04-21T12:26:32;99468.53;;;24.14;15.83
75208;BME280;63795;55.684;37.864;2023-04-21T12:31:32;99468.38;;;25.06;15.57
75208;BME280;63795;55.684;37.864;2023-04-21T12:36:33;99464.34;;;24.98;15.54
75208;BME280;63795;55.684;37.864;2023-04-21T12:41:33;99453.91;;;25.43;14.57
75208;BME280;63795;55.684;37.864;2023-04-21T12:46:34;99457.56;;;24.49;15.03
75208;BME280;63795;55.684;37.864;2023-04-21T12:51:34;99449.81;;;23.35;15.50
75208;BME280;63795;55.684;37.864;2023-04-21T12:56:35;99450.31;;;22.40;16.31
75208;BME280;63795;55.684;37.864;2023-04-21T13:01:39;99438.81;;;23.39;16.02
75208;BME280;63795;55.684;37.864;2023-04-21T13:06:40;99437.19;;;24.70;15.84
75208;BME280;63795;55.684;37.864;2023-04-21T13:11:41;99407.91;;;24.36;14.59
75208;BME280;63795;55.684;37.864;2023-04-21T13:16:42;99407.44;;;23.32;16.22
75208;BME280;63795;55.684;37.864;2023-04-21T13:21:42;99400.50;;;22.02;16.55
75208;BME280;63795;55.684;37.864;2023-04-21T13:26:42;99399.78;;;21.54;16.80
75208;BME280;63795;55.684;37.864;2023-04-21T13:31:43;99404.56;;;21.09;17.17
75208;BME280;63795;55.684;37.864;2023-04-21T13:36:43;99388.41;;;20.70;17.35
75208;BME280;63795;55.684;37.864;2023-04-21T13:41:44;99386.72;;;19.77;18.79
75208;BME280;63795;55.684;37.864;2023-04-21T13:46:45;99378.13;;;19.59;18.98
75208;BME280;63795;55.684;37.864;2023-04-21T13:51:45;99383.34;;;19.24;18.84
75208;BME280;63795;55.684;37.864;2023-04-21T13:56:46;99376.94;;;19.11;19.35
75208;BME280;63795;55.684;37.864;2023-04-21T14:01:46;99372.31;;;19.13;18.99
75208;BME280;63795;55.684;37.864;2023-04-21T14:06:48;99365.72;;;18.86;19.70
75208;BME280;63795;55.684;37.864;2023-04-21T14:11:49;99361.34;;;18.63;20.05
75208;BME280;63795;55.684;37.864;2023-04-21T14:16:50;99359.09;;;18.58;19.64
75208;BME280;63795;55.684;37.864;2023-04-21T14:21:50;99370.38;;;18.43;19.93
75208;BME280;63795;55.684;37.864;2023-04-21T14:26:51;99371.47;;;18.46;19.92
75208;BME280;63795;55.684;37.864;2023-04-21T14:31:51;99372.81;;;18.23;20.14
75208;BME280;63795;55.684;37.864;2023-04-21T14:36:56;99377.00;;;18.10;20.36
75208;BME280;63795;55.684;37.864;2023-04-21T14:41:57;99372.31;;;18.25;20.21
75208;BME280;63795;55.684;37.864;2023-04-21T14:46:57;99361.53;;;18.38;20.35
75208;BME280;63795;55.684;37.864;2023-04-21T14:51:58;99370.44;;;18.31;20.44
75208;BME280;63795;55.684;37.864;2023-04-21T14:56:58;99366.53;;;18.16;20.38
75208;BME280;63795;55.684;37.864;2023-04-21T15:02:01;99365.63;;;18.28;20.13
75208;BME280;63795;55.684;37.864;2023-04-21T15:07:01;99366.09;;;18.17;20.35
75208;BME280;63795;55.684;37.864;2023-04-21T15:12:03;99358.78;;;17.95;20.62
75208;BME280;63795;55.684;37.864;2023-04-21T15:17:03;99363.13;;;17.77;21.10
75208;BME280;63795;55.684;37.864;2023-04-21T15:22:04;99359.47;;;17.77;20.75
75208;BME280;63795;55.684;37.864;2023-04-21T15:27:16;99358.66;;;17.76;21.40
75208;BME280;63795;55.684;37.864;2023-04-21T15:32:17;99359.94;;;17.75;21.26
75208;BME280;63795;55.684;37.864;2023-04-21T15:37:17;99363.25;;;17.52;22.43
75208;BME280;63795;55.684;37.864;2023-04-21T15:42:19;99365.94;;;17.34;22.45
75208;BME280;63795;55.684;37.864;2023-04-21T15:47:19;99362.13;;;17.16;22.78
75208;BME280;63795;55.684;37.864;2023-04-21T15:52:21;99366.88;;;17.31;23.13
75208;BME280;63795;55.684;37.864;2023-04-21T15:57:22;99363.53;;;17.11;23.26
75208;BME280;63795;55.684;37.864;2023-04-21T16:02:23;99369.13;;;17.15;23.44
75208;BME280;63795;55.684;37.864;2023-04-21T16:07:25;99374.03;;;17.14;23.46
75208;BME280;63795;55.684;37.864;2023-04-21T16:12:26;99368.06;;;17.21;22.84
75208;BME280;63795;55.684;37.864;2023-04-21T16:17:26;99380.59;;;17.15;23.59
75208;BME280;63795;55.684;37.864;2023-04-21T16:22:27;99377.91;;;16.86;24.63
75208;BME280;63795;55.684;37.864;2023-04-21T16:27:27;99378.97;;;16.67;24.08
75208;BME280;63795;55.684;37.864;2023-04-21T16:32:28;99373.38;;;16.51;24.26
75208;BME280;63795;55.684;37.864;2023-04-21T16:37:28;99385.34;;;16.46;24.77
75208;BME280;63795;55.684;37.864;2023-04-21T16:42:28;99371.16;;;16.30;25.16
75208;BME280;63795;55.684;37.864;2023-04-21T16:47:30;99380.53;;;16.17;24.66
75208;BME280;63795;55.684;37.864;2023-04-21T16:52:33;99372.66;;;16.22;24.77
75208;BME280;63795;55.684;37.864;2023-04-21T16:57:34;99373.00;;;16.11;25.84
75208;BME280;63795;55.684;37.864;2023-04-21T17:02:34;99388.50;;;15.97;25.40
75208;BME280;63795;55.684;37.864;2023-04-21T17:07:35;99365.41;;;15.92;25.43
75208;BME280;63795;55.684;37.864;2023-04-21T17:12:39;99369.97;;;15.89;26.29
75208;BME280;63795;55.684;37.864;2023-04-21T17:17:43;99364.00;;;15.71;26.75
75208;BME280;63795;55.684;37.864;2023-04-21T17:22:43;99367.38;;;15.54;26.74
75208;BME280;63795;55.684;37.864;2023-04-21T17:27:44;99365.88;;;15.49;26.15
75208;BME280;63795;55.684;37.864;2023-04-21T17:32:45;99359.28;;;15.52;26.48
75208;BME280;63795;55.684;37.864;2023-04-21T17:37:46;99360.50;;;15.51;26.59
75208;BME280;63795;55.684;37.864;2023-04-21T17:42:46;99357.53;;;15.42;26.92
75208;BME280;63795;55.684;37.864;2023-04-21T17:47:47;99357.91;;;15.28;27.26
75208;BME280;63795;55.684;37.864;2023-04-21T17:52:47;99343.47;;;15.19;27.31
75208;BME280;63795;55.684;37.864;2023-04-21T17:57:49;99351.69;;;15.17;27.78
75208;BME280;63795;55.684;37.864;2023-04-21T18:02:49;99353.28;;;15.18;27.94
75208;BME280;63795;55.684;37.864;2023-04-21T18:07:50;99342.34;;;15.00;28.10
75208;BME280;63795;55.684;37.864;2023-04-21T18:12:50;99335.34;;;14.89;28.43
75208;BME280;63795;55.684;37.864;2023-04-21T18:17:51;99341.22;;;14.82;28.64
75208;BME280;63795;55.684;37.864;2023-04-21T18:22:52;99321.25;;;14.82;28.21
75208;BME280;63795;55.684;37.864;2023-04-21T18:27:52;99334.47;;;14.76;29.01
75208;BME280;63795;55.684;37.864;2023-04-21T18:32:53;99328.88;;;14.56;29.04
75208;BME280;63795;55.684;37.864;2023-04-21T18:37:53;99328.16;;;14.52;28.75
75208;BME280;63795;55.684;37.864;2023-04-21T18:42:54;99326.72;;;14.44;29.86
75208;BME280;63795;55.684;37.864;2023-04-21T18:47:54;99320.78;;;14.38;28.74
75208;BME280;63795;55.684;37.864;2023-04-21T18:52:55;99318.16;;;14.44;29.78
75208;BME280;63795;55.684;37.864;2023-04-21T18:57:55;99315.22;;;14.31;29.65
75208;BME280;63795;55.684;37.864;2023-04-21T19:02:58;99309.59;;;14.12;30.20
75208;BME280;63795;55.684;37.864;2023-04-21T19:08:01;99317.88;;;14.06;30.07
75208;BME280;63795;55.684;37.864;2023-04-21T19:13:01;99309.13;;;14.13;29.60
75208;BME280;63795;55.684;37.864;2023-04-21T19:18:02;99316.25;;;14.05;29.65
75208;BME280;63795;55.684;37.864;2023-04-21T19:23:02;99313.75;;;14.07;30.65
75208;BME280;63795;55.684;37.864;2023-04-21T19:28:03;99302.53;;;14.00;30.60
75208;BME280;63795;55.684;37.864;2023-04-21T19:33:05;99317.94;;;13.87;30.74
75208;BME280;63795;55.684;37.864;2023-04-21T19:38:06;99303.16;;;13.56;30.30
75208;BME280;63795;55.684;37.864;2023-04-21T19:43:07;99316.94;;;13.57;30.21
75208;BME280;63795;55.684;37.864;2023-04-21T19:48:08;99313.00;;;13.51;30.42
75208;BME280;63795;55.684;37.864;2023-04-21T19:53:08;99307.13;;;13.42;31.00
75208;BME280;63795;55.684;37.864;2023-04-21T19:58:13;99311.94;;;13.26;31.96
75208;BME280;63795;55.684;37.864;2023-04-21T20:03:14;99309.38;;;13.12;32.68
75208;BME280;63795;55.684;37.864;2023-04-21T20:08:15;99316.88;;;13.02;31.46
75208;BME280;63795;55.684;37.864;2023-04-21T20:13:15;99314.69;;;12.90;33.03
75208;BME280;63795;55.684;37.864;2023-04-21T20:18:16;99312.84;;;12.80;33.24
75208;BME280;63795;55.684;37.864;2023-04-21T20:23:16;99318.66;;;12.50;33.86
75208;BME280;63795;55.684;37.864;2023-04-21T20:28:17;99322.19;;;12.34;34.06
75208;BME280;63795;55.684;37.864;2023-04-21T20:33:18;99312.50;;;12.32;33.67
75208;BME280;63795;55.684;37.864;2023-04-21T20:38:18;99315.78;;;12.30;34.32
75208;BME280;63795;55.684;37.864;2023-04-21T20:43:22;99320.34;;;12.24;35.14
75208;BME280;63795;55.684;37.864;2023-04-21T20:48:23;99316.38;;;12.18;33.77
75208;BME280;63795;55.684;37.864;2023-04-21T20:53:23;99319.03;;;12.29;33.59
75208;BME280;63795;55.684;37.864;2023-04-21T20:58:24;99312.56;;;12.28;34.95
75208;BME280;63795;55.684;37.864;2023-04-21T21:03:24;99316.63;;;12.27;33.89
75208;BME280;63795;55.684;37.864;2023-04-21T21:08:25;99303.91;;;12.12;34.39
75208;BME280;63795;55.684;37.864;2023-04-21T21:13:27;99308.09;;;12.04;35.33
75208;BME280;63795;55.684;37.864;2023-04-21T21:18:27;99304.81;;;12.06;34.47
75208;BME280;63795;55.684;37.864;2023-04-21T21:23:28;99300.69;;;12.10;34.83
75208;BME280;63795;55.684;37.864;2023-04-21T21:28:28;99305.72;;;11.99;35.62
75208;BME280;63795;55.684;37.864;2023-04-21T21:33:29;99295.69;;;11.91;35.44
75208;BME280;63795;55.684;37.864;2023-04-21T21:38:30;99292.84;;;11.91;34.89
75208;BME280;63795;55.684;37.864;2023-04-21T21:43:30;99295.53;;;11.75;36.09
75208;BME280;63795;55.684;37.864;2023-04-21T21:48:32;99288.44;;;11.60;36.54
75208;BME280;63795;55.684;37.864;2023-04-21T21:53:32;99295.09;;;11.50;36.35
75208;BME280;63795;55.684;37.864;2023-04-21T21:58:33;99298.38;;;11.45;35.79
75208;BME280;63795;55.684;37.864;2023-04-21T22:03:33;99297.31;;;11.35;37.48
75208;BME280;63795;55.684;37.864;2023-04-21T22:08:35;99294.50;;;11.32;36.65
75208;BME280;63795;55.684;37.864;2023-04-21T22:13:35;99300.66;;;11.27;37.83
75208;BME280;63795;55.684;37.864;2023-04-21T22:18:36;99301.59;;;11.17;37.10
75208;BME280;63795;55.684;37.864;2023-04-21T22:23:36;99302.06;;;11.11;37.36
75208;BME280;63795;55.684;37.864;2023-04-21T22:28:37;99295.72;;;11.00;36.91
75208;BME280;63795;55.684;37.864;2023-04-21T22:33:37;99297.50;;;10.87;38.96
75208;BME280;63795;55.684;37.864;2023-04-21T22:38:38;99297.19;;;10.78;37.93
75208;BME280;63795;55.684;37.864;2023-04-21T22:43:39;99289.59;;;10.68;38.31
75208;BME280;63795;55.684;37.864;2023-04-21T22:48:40;99289.25;;;10.63;39.17
75208;BME280;63795;55.684;37.864;2023-04-21T22:53:40;99286.53;;;10.52;37.65
75208;BME280;63795;55.684;37.864;2023-04-21T22:58:41;99294.50;;;10.64;38.66
75208;BME280;63795;55.684;37.864;2023-04-21T23:03:42;99287.28;;;10.60;37.75
75208;BME280;63795;55.684;37.864;2023-04-21T23:08:42;99295.41;;;10.54;37.84
75208;BME280;63795;55.684;37.864;2023-04-21T23:13:43;99285.47;;;10.39;39.13
75208;BME280;63795;55.684;37.864;2023-04-21T23:18:43;99287.44;;;10.42;37.63
75208;BME280;63795;55.684;37.864;2023-04-21T23:23:44;99288.59;;;10.48;37.59
75208;BME280;63795;55.684;37.864;2023-04-21T23:28:44;99291.50;;;10.41;38.04
75208;BME280;63795;55.684;37.864;2023-04-21T23:33:45;99290.75;;;10.37;39.07
75208;BME280;63795;55.684;37.864;2023-04-21T23:38:45;99283.06;;;10.34;38.93
75208;BME280;63795;55.684;37.864;2023-04-21T23:43:46;99275.81;;;10.33;38.20
75208;BME280;63795;55.684;37.864;2023-04-21T23:48:46;99273.06;;;10.26;40.51
75208;BME280;63795;55.684;37.864;2023-04-21T23:53:46;99286.84;;;10.20;38.44
75208;BME280;63795;55.684;37.864;2023-04-21T23:58:47;99280.34;;;10.23;39.95
